Time;durP1;ratioP1;P1;durP2;ratioP2;P2;SDS_P1;SDS_P2;PMS_P1;PMS_P2;Temp;Humidity;BMP_temperature;BMP_pressure;BME280_temperature;BME280_humidity;BME280_pressure;Samples;Min_cycle;Max_cycle;Signal;HPM_P1;HPM_P2
2020/12/08 00:02:01;;;;;;;25.63;17.00;;;2.60;99.90;;;;;;12451005;28;20523;-34
2020/12/08 00:08:05;;;;;;;27.67;17.10;;;2.50;99.90;;;;;;12424104;28;20079;-33
2020/12/08 00:14:06;;;;;;;26.20;17.13;;;2.50;99.90;;;;;;12438279;28;20081;-34
2020/12/08 00:20:08;;;;;;;29.15;17.83;;;2.30;99.90;;;;;;12435928;28;20467;-33
2020/12/08 00:26:13;;;;;;;24.73;16.17;;;2.10;99.90;;;;;;12424871;28;20060;-33
2020/12/08 00:32:14;;;;;;;25.37;16.77;;;1.90;99.90;;;;;;12434144;28;20041;-33
2020/12/08 00:38:15;;;;;;;31.50;17.45;;;1.60;99.90;;;;;;12435020;28;20516;-33
2020/12/08 00:44:16;;;;;;;27.20;17.48;;;1.60;99.90;;;;;;12439641;28;20054;-33
2020/12/08 00:50:18;;;;;;;28.88;18.70;;;1.70;99.90;;;;;;12432662;28;20050;-33
2020/12/08 00:56:19;;;;;;;26.42;16.60;;;1.80;99.90;;;;;;12444625;28;20046;-33
2020/12/08 01:02:20;;;;;;;31.05;18.30;;;1.70;99.90;;;;;;12432741;28;20552;-33
2020/12/08 01:08:21;;;;;;;32.88;19.20;;;1.60;99.90;;;;;;12413778;28;20134;-33
2020/12/08 01:14:23;;;;;;;31.65;19.10;;;1.50;99.90;;;;;;12445054;28;20084;-33
2020/12/08 01:20:24;;;;;;;33.15;17.33;;;1.50;99.90;;;;;;12444873;28;20088;-33
2020/12/08 01:26:26;;;;;;;29.17;18.48;;;1.60;99.90;;;;;;12446068;28;20092;-33
2020/12/08 01:32:27;;;;;;;30.77;19.60;;;1.80;99.90;;;;;;12460076;28;20076;-33
2020/12/08 01:38:29;;;;;;;30.13;18.20;;;1.80;99.90;;;;;;12439399;28;20080;-33
2020/12/08 01:44:31;;;;;;;28.73;17.55;;;1.70;99.90;;;;;;12438645;28;20499;-33
2020/12/08 01:50:32;;;;;;;30.30;19.10;;;1.60;99.90;;;;;;12418830;28;20103;-33
2020/12/08 01:56:34;;;;;;;29.67;18.35;;;1.60;99.90;;;;;;12422277;28;20085;-33
2020/12/08 02:02:36;;;;;;;26.75;17.25;;;1.70;99.90;;;;;;12412154;28;20082;-33
2020/12/08 02:08:38;;;;;;;26.48;17.13;;;1.70;99.90;;;;;;12415997;28;20069;-33
2020/12/08 02:14:39;;;;;;;31.45;18.63;;;1.80;99.90;;;;;;12407154;28;20091;-33
2020/12/08 02:20:41;;;;;;;33.20;18.45;;;1.90;99.90;;;;;;12420054;28;20332;-33
2020/12/08 02:26:44;;;;;;;30.95;18.63;;;2.10;99.90;;;;;;12402420;28;20061;-33
2020/12/08 02:32:45;;;;;;;27.90;16.52;;;2.20;99.90;;;;;;12405959;28;20419;-33
2020/12/08 02:38:47;;;;;;;29.58;17.73;;;2.10;99.90;;;;;;12424597;28;20061;-33
2020/12/08 02:44:48;;;;;;;28.80;17.63;;;2.30;99.90;;;;;;12419268;28;20105;-33
2020/12/08 02:50:50;;;;;;;25.02;16.05;;;2.30;99.90;;;;;;12431522;28;20084;-33
2020/12/08 02:56:51;;;;;;;30.38;17.58;;;2.30;99.90;;;;;;12424332;28;20149;-33
2020/12/08 03:02:52;;;;;;;30.48;17.45;;;2.40;99.90;;;;;;12434519;28;20056;-33
2020/12/08 03:08:54;;;;;;;26.90;17.38;;;2.40;99.90;;;;;;12444422;28;20058;-33
2020/12/08 03:14:55;;;;;;;27.10;17.08;;;2.40;99.90;;;;;;12434183;28;20073;-33
2020/12/08 03:20:59;;;;;;;29.20;16.77;;;2.40;99.90;;;;;;12445678;28;20068;-33
2020/12/08 03:27:01;;;;;;;27.90;16.90;;;2.40;99.90;;;;;;12412720;28;20046;-33
2020/12/08 03:33:02;;;;;;;26.10;16.30;;;2.50;99.90;;;;;;12440807;28;20077;-33
2020/12/08 03:39:04;;;;;;;23.63;15.85;;;2.50;99.90;;;;;;12437615;28;20486;-33
2020/12/08 03:45:05;;;;;;;26.08;15.55;;;2.50;99.90;;;;;;12455823;28;20049;-33
2020/12/08 03:51:10;;;;;;;24.02;15.32;;;2.50;99.90;;;;;;12464415;28;20433;-33
2020/12/08 03:57:12;;;;;;;25.65;15.38;;;2.50;99.90;;;;;;12458618;28;20079;-33
2020/12/08 04:03:13;;;;;;;23.70;15.65;;;2.50;99.90;;;;;;12458981;28;20599;-33
2020/12/08 04:09:15;;;;;;;24.75;16.13;;;2.60;99.90;;;;;;12453582;28;20041;-33
2020/12/08 04:15:17;;;;;;;24.95;15.23;;;2.60;99.90;;;;;;12454123;28;20091;-33
2020/12/08 04:21:26;;;;;;;27.23;15.57;;;2.70;99.90;;;;;;12438949;28;20489;-33
2020/12/08 04:27:27;;;;;;;22.77;14.40;;;2.70;99.90;;;;;;12460591;28;20512;-33
2020/12/08 04:33:28;;;;;;;23.35;14.40;;;2.60;99.90;;;;;;12447411;28;20038;-33
2020/12/08 04:39:30;;;;;;;24.30;14.32;;;2.70;99.90;;;;;;12452089;28;20061;-33
2020/12/08 04:45:32;;;;;;;23.95;15.05;;;2.70;99.90;;;;;;12431846;28;20054;-33
2020/12/08 04:51:38;;;;;;;22.92;15.18;;;2.70;99.90;;;;;;12432549;28;20398;-33
2020/12/08 04:57:40;;;;;;;23.95;14.80;;;2.70;99.90;;;;;;12416539;28;20096;-33
2020/12/08 05:03:41;;;;;;;23.48;15.45;;;2.80;99.90;;;;;;12438624;28;20084;-33
2020/12/08 05:09:44;;;;;;;24.20;15.23;;;2.70;99.90;;;;;;12425334;28;20041;-33
2020/12/08 05:16:03;;;;;;;24.98;15.63;;;2.80;99.90;;;;;;12411035;28;20099;-33
2020/12/08 05:22:04;;;;;;;24.77;15.45;;;2.80;99.90;;;;;;12428663;28;20057;-33
2020/12/08 05:28:17;;;;;;;25.50;15.40;;;2.80;99.90;;;;;;12401430;28;20505;-33
2020/12/08 05:34:21;;;;;;;25.33;15.77;;;2.80;99.90;;;;;;12422433;28;20045;-33
2020/12/08 05:40:25;;;;;;;25.67;16.25;;;2.80;99.90;;;;;;12423525;28;20053;-33
2020/12/08 05:46:38;;;;;;;29.20;16.95;;;2.80;99.90;;;;;;12451837;28;20065;-33
2020/12/08 05:52:48;;;;;;;26.20;16.02;;;2.80;99.90;;;;;;12460457;28;20077;-36
2020/12/08 05:58:55;;;;;;;26.25;16.70;;;2.80;99.90;;;;;;12454148;28;20057;-36
2020/12/08 06:05:00;;;;;;;27.65;16.65;;;2.80;99.90;;;;;;12445011;28;20486;-36
2020/12/08 06:11:01;;;;;;;28.00;16.15;;;2.80;99.90;;;;;;12453235;28;21210;-36
2020/12/08 06:17:07;;;;;;;30.15;15.73;;;2.80;99.90;;;;;;12444829;28;20053;-33
2020/12/08 06:23:08;;;;;;;25.58;15.70;;;2.80;99.90;;;;;;12462449;28;20041;-33
2020/12/08 06:29:12;;;;;;;25.67;14.98;;;2.80;99.90;;;;;;12435223;28;20929;-33
2020/12/08 06:35:16;;;;;;;25.13;15.52;;;2.80;99.90;;;;;;12464125;28;20054;-33
2020/12/08 06:41:17;;;;;;;26.73;15.68;;;2.90;99.90;;;;;;12454594;28;20049;-33
2020/12/08 06:47:19;;;;;;;21.75;14.52;;;2.80;99.90;;;;;;12437280;28;20070;-33
2020/12/08 06:53:25;;;;;;;26.63;15.10;;;2.80;99.90;;;;;;12432188;28;20042;-33
2020/12/08 06:59:28;;;;;;;24.70;15.48;;;2.80;99.90;;;;;;12415250;28;20049;-33
2020/12/08 07:05:31;;;;;;;22.98;14.25;;;2.90;99.90;;;;;;12430896;28;20438;-33
2020/12/08 07:11:33;;;;;;;25.77;15.48;;;2.90;99.90;;;;;;12421801;28;20456;-33
2020/12/08 07:17:34;;;;;;;22.88;14.15;;;2.90;99.90;;;;;;12412776;28;20050;-33
2020/12/08 07:23:39;;;;;;;24.02;14.77;;;2.90;99.90;;;;;;12434443;28;20485;-33
2020/12/08 07:29:41;;;;;;;25.25;15.52;;;2.90;99.90;;;;;;12421441;28;20046;-33
2020/12/08 07:35:44;;;;;;;22.33;14.30;;;3.00;99.90;;;;;;12395888;28;20146;-34
2020/12/08 07:41:45;;;;;;;20.83;13.88;;;3.00;99.90;;;;;;12426844;28;20060;-33
2020/12/08 07:47:52;;;;;;;21.95;14.07;;;3.10;99.90;;;;;;12426590;28;20050;-34
2020/12/08 07:53:54;;;;;;;23.45;14.35;;;3.00;99.90;;;;;;12420331;28;20049;-33
2020/12/08 07:59:56;;;;;;;22.83;14.18;;;3.00;99.90;;;;;;12417723;28;20049;-33
2020/12/08 08:05:57;;;;;;;21.38;13.77;;;3.00;99.90;;;;;;12428445;28;20049;-33
2020/12/08 08:12:00;;;;;;;22.92;14.20;;;3.00;99.90;;;;;;12409601;28;20050;-33
2020/12/08 08:18:02;;;;;;;22.55;13.48;;;3.00;99.90;;;;;;12425726;28;20111;-33
2020/12/08 08:24:03;;;;;;;21.85;14.38;;;3.00;99.90;;;;;;12431394;28;20136;-33
2020/12/08 08:30:05;;;;;;;21.48;14.35;;;3.00;99.90;;;;;;12404597;28;20070;-33
2020/12/08 08:36:06;;;;;;;21.55;14.20;;;3.10;99.90;;;;;;12434555;28;20045;-33
2020/12/08 08:42:08;;;;;;;23.33;14.73;;;3.10;99.90;;;;;;12426484;28;20053;-33
2020/12/08 08:48:09;;;;;;;21.33;13.57;;;3.20;99.90;;;;;;12455976;28;20045;-33
2020/12/08 08:54:12;;;;;;;21.02;14.15;;;3.30;99.90;;;;;;12454635;28;20618;-33
2020/12/08 09:00:13;;;;;;;22.58;12.88;;;3.40;99.90;;;;;;12455007;28;20081;-33
2020/12/08 09:06:15;;;;;;;20.30;12.93;;;3.40;99.90;;;;;;12457723;28;20449;-33
2020/12/08 09:12:16;;;;;;;18.20;12.80;;;3.50;99.90;;;;;;12461386;28;20046;-33
2020/12/08 09:18:17;;;;;;;18.25;13.10;;;3.40;99.90;;;;;;12436221;28;20053;-33
2020/12/08 09:24:19;;;;;;;19.90;13.52;;;3.50;99.90;;;;;;12456710;28;20062;-33
2020/12/08 09:30:21;;;;;;;21.35;13.05;;;3.50;99.90;;;;;;12455916;28;20057;-33
2020/12/08 09:36:23;;;;;;;24.23;13.07;;;3.60;99.90;;;;;;12431556;28;20451;-33
2020/12/08 09:42:24;;;;;;;19.58;12.45;;;3.60;99.90;;;;;;12441009;28;20042;-33
2020/12/08 09:48:25;;;;;;;19.98;13.10;;;3.60;99.90;;;;;;12418770;28;20057;-33
2020/12/08 09:54:27;;;;;;;18.58;12.38;;;3.60;99.90;;;;;;12424019;28;20085;-33
2020/12/08 10:00:28;;;;;;;21.63;13.60;;;3.60;99.90;;;;;;12436939;28;20400;-33
2020/12/08 10:06:29;;;;;;;19.05;12.40;;;3.60;99.90;;;;;;12435372;28;20053;-33
2020/12/08 10:12:31;;;;;;;20.58;13.07;;;3.60;99.90;;;;;;12438325;28;20045;-33
2020/12/08 10:18:32;;;;;;;20.40;12.68;;;3.70;99.90;;;;;;12422324;28;20049;-33
2020/12/08 10:24:43;;;;;;;19.17;12.65;;;3.70;99.90;;;;;;12415894;28;20446;-33
2020/12/08 10:30:44;;;;;;;18.60;12.75;;;3.90;99.90;;;;;;12426833;28;20050;-33
2020/12/08 10:36:47;;;;;;;21.02;13.23;;;3.90;99.90;;;;;;12430332;28;20053;-33
2020/12/08 10:42:48;;;;;;;18.95;12.40;;;4.00;99.90;;;;;;12439730;28;20474;-33
2020/12/08 10:48:50;;;;;;;18.67;12.75;;;4.00;99.90;;;;;;12428369;28;20060;-33
2020/12/08 10:54:52;;;;;;;20.10;13.90;;;4.00;99.90;;;;;;12430500;28;20512;-33
2020/12/08 11:00:53;;;;;;;19.48;13.00;;;4.00;99.90;;;;;;12426924;28;20103;-33
2020/12/08 11:06:58;;;;;;;21.13;13.70;;;4.10;99.90;;;;;;12435464;28;20053;-33
2020/12/08 11:13:00;;;;;;;;;;;4.30;99.90;;;;;;12433582;28;20056;-33
2020/12/08 11:19:03;;;;;;;19.83;13.20;;;4.40;99.90;;;;;;12425789;28;19936;-33
2020/12/08 11:25:04;;;;;;;18.67;12.57;;;4.50;99.90;;;;;;12445133;28;20558;-33
2020/12/08 11:31:06;;;;;;;17.88;12.73;;;4.70;99.90;;;;;;12416712;28;20046;-33
2020/12/08 11:37:16;;;;;;;18.15;12.57;;;4.80;99.90;;;;;;12423239;28;20107;-33
2020/12/08 11:43:18;;;;;;;19.90;13.40;;;5.00;99.90;;;;;;12436612;28;20152;-33
2020/12/08 11:49:20;;;;;;;16.67;11.82;;;5.00;99.90;;;;;;12450177;28;20046;-33
2020/12/08 11:55:21;;;;;;;17.48;12.25;;;5.00;99.90;;;;;;12465720;28;20049;-33
2020/12/08 12:01:24;;;;;;;18.02;12.35;;;4.90;99.90;;;;;;12451859;28;20091;-33
2020/12/08 12:07:26;;;;;;;18.90;12.70;;;4.90;99.90;;;;;;12443337;28;20073;-33
2020/12/08 12:13:27;;;;;;;18.92;12.75;;;4.90;99.90;;;;;;12448659;28;20405;-33
2020/12/08 12:19:29;;;;;;;16.83;11.45;;;5.00;99.90;;;;;;12441269;28;20077;-33
2020/12/08 12:25:30;;;;;;;18.75;12.52;;;5.00;99.90;;;;;;12451066;28;20069;-33
2020/12/08 12:31:32;;;;;;;17.55;11.82;;;4.80;99.90;;;;;;12449776;28;20053;-33
2020/12/08 12:37:33;;;;;;;17.45;12.38;;;4.80;99.90;;;;;;12440925;28;20060;-33
2020/12/08 12:43:34;;;;;;;18.70;14.15;;;4.90;99.90;;;;;;12460023;28;20049;-33
2020/12/08 12:49:36;;;;;;;18.70;12.70;;;5.20;99.90;;;;;;12444287;28;20108;-33
2020/12/08 12:55:38;;;;;;;19.58;13.60;;;5.70;99.90;;;;;;12449768;28;21938;-34
2020/12/08 13:01:39;;;;;;;16.58;12.32;;;5.90;99.90;;;;;;12444256;28;20060;-33
2020/12/08 13:07:41;;;;;;;18.83;12.73;;;5.60;99.90;;;;;;12431906;28;20053;-33
2020/12/08 13:13:43;;;;;;;17.95;12.60;;;5.20;99.90;;;;;;12441401;28;20065;-33
2020/12/08 13:19:44;;;;;;;18.67;12.70;;;4.80;99.90;;;;;;12425213;28;20390;-33
2020/12/08 13:25:46;;;;;;;18.73;13.10;;;4.60;99.90;;;;;;12446906;28;20049;-33
2020/12/08 13:31:48;;;;;;;19.55;13.75;;;4.60;99.90;;;;;;12430586;28;20073;-33
2020/12/08 13:37:50;;;;;;;19.95;13.10;;;4.70;99.90;;;;;;12432404;28;20088;-33
2020/12/08 13:43:51;;;;;;;21.02;13.23;;;4.80;99.90;;;;;;12439703;28;20077;-33
2020/12/08 13:49:54;;;;;;;18.02;12.65;;;4.70;99.90;;;;;;12436268;28;20054;-33
2020/12/08 13:55:56;;;;;;;19.00;13.30;;;4.60;99.90;;;;;;12448932;28;20049;-33
2020/12/08 14:01:57;;;;;;;19.88;13.80;;;4.40;99.90;;;;;;12440209;28;20073;-33
2020/12/08 14:07:59;;;;;;;21.92;12.90;;;4.40;99.90;;;;;;12442428;28;20084;-36
2020/12/08 14:14:00;;;;;;;18.58;12.98;;;4.40;99.90;;;;;;12438229;28;20041;-33
2020/12/08 14:20:02;;;;;;;19.45;12.05;;;4.50;99.90;;;;;;12441171;28;21354;-33
2020/12/08 14:26:03;;;;;;;17.30;12.52;;;4.70;99.90;;;;;;12445697;28;20057;-33
2020/12/08 14:32:05;;;;;;;19.05;13.30;;;4.90;99.90;;;;;;12420609;28;20065;-33
2020/12/08 14:38:06;;;;;;;22.23;13.93;;;4.80;99.90;;;;;;12433140;28;20083;-33
2020/12/08 14:44:07;;;;;;;21.00;14.48;;;4.60;99.90;;;;;;12447012;28;20827;-33
2020/12/08 14:50:09;;;;;;;20.75;14.02;;;4.40;99.90;;;;;;12446752;28;20084;-33
2020/12/08 14:56:15;;;;;;;19.60;13.45;;;4.20;99.90;;;;;;12461935;28;20076;-33
2020/12/08 15:02:17;;;;;;;18.50;12.90;;;4.10;99.90;;;;;;12444848;28;20049;-33
2020/12/08 15:08:18;;;;;;;20.55;12.82;;;3.70;99.90;;;;;;12457765;28;20081;-33
2020/12/08 15:14:19;;;;;;;23.63;14.35;;;3.40;99.90;;;;;;12461696;28;20045;-35
2020/12/08 15:20:21;;;;;;;22.92;15.10;;;3.10;99.90;;;;;;12428978;28;20172;-33
2020/12/08 15:26:22;;;;;;;26.70;15.85;;;3.00;99.90;;;;;;12461689;28;20067;-33
2020/12/08 15:32:23;;;;;;;27.27;16.90;;;2.80;99.90;;;;;;12441736;28;20049;-33
2020/12/08 15:38:25;;;;;;;28.10;16.95;;;2.80;99.90;;;;;;12445503;28;20373;-33
2020/12/08 15:44:26;;;;;;;32.38;18.67;;;2.80;99.90;;;;;;12448066;28;20176;-33
2020/12/08 15:50:28;;;;;;;33.53;17.92;;;2.70;99.90;;;;;;12463211;28;20139;-33
2020/12/08 15:56:30;;;;;;;27.00;17.05;;;2.70;99.90;;;;;;12431079;28;20168;-33
2020/12/08 16:02:31;;;;;;;31.52;18.13;;;2.50;99.90;;;;;;12421327;28;20393;-33
2020/12/08 16:08:37;;;;;;;28.23;16.92;;;2.50;99.90;;;;;;12445621;28;20079;-33
2020/12/08 16:14:39;;;;;;;33.35;17.83;;;2.40;99.90;;;;;;12425917;28;20041;-34
2020/12/08 16:20:41;;;;;;;30.50;18.13;;;2.30;99.90;;;;;;12419353;28;20045;-34
2020/12/08 16:26:43;;;;;;;28.30;17.27;;;2.40;99.90;;;;;;12439971;28;20520;-34
2020/12/08 16:32:45;;;;;;;28.13;16.98;;;2.40;99.90;;;;;;12440584;28;20037;-35
2020/12/08 16:38:46;;;;;;;29.48;17.88;;;2.40;99.90;;;;;;12433727;28;20137;-35
2020/12/08 16:44:48;;;;;;;25.88;16.65;;;2.40;99.90;;;;;;12441421;28;20550;-35
2020/12/08 16:50:50;;;;;;;26.40;16.05;;;2.50;99.90;;;;;;12453593;28;20444;-35
2020/12/08 16:56:51;;;;;;;27.52;16.77;;;2.60;99.90;;;;;;12444688;28;20052;-35
2020/12/08 17:02:54;;;;;;;33.38;18.88;;;2.70;99.90;;;;;;12438999;28;20069;-35
2020/12/08 17:08:55;;;;;;;32.45;18.52;;;2.70;99.90;;;;;;12448958;28;20529;-35
2020/12/08 17:14:57;;;;;;;34.67;20.30;;;2.80;99.90;;;;;;12444197;28;20057;-35
2020/12/08 17:20:58;;;;;;;33.00;20.25;;;2.80;99.90;;;;;;12437813;28;20137;-35
2020/12/08 17:27:05;;;;;;;35.60;21.40;;;2.90;99.90;;;;;;12451633;28;20088;-35
2020/12/08 17:33:06;;;;;;;31.30;20.33;;;2.80;99.90;;;;;;12442767;28;20045;-35
2020/12/08 17:39:07;;;;;;;36.25;21.73;;;2.80;99.90;;;;;;12438269;28;20080;-35
2020/12/08 17:45:10;;;;;;;40.35;22.48;;;2.70;99.90;;;;;;12452569;28;20488;-35
2020/12/08 17:51:11;;;;;;;35.92;22.45;;;2.60;99.90;;;;;;12451649;28;20084;-35
2020/12/08 17:57:12;;;;;;;31.35;19.38;;;2.50;99.90;;;;;;12442359;28;20083;-35
2020/12/08 18:03:14;;;;;;;32.95;19.33;;;2.30;99.90;;;;;;12431103;28;20351;-35
2020/12/08 18:09:15;;;;;;;30.65;18.98;;;2.10;99.90;;;;;;12443102;28;20069;-35
2020/12/08 18:15:16;;;;;;;35.10;20.27;;;2.00;99.90;;;;;;12427097;28;20503;-35
2020/12/08 18:21:18;;;;;;;36.15;20.90;;;1.90;99.90;;;;;;12456289;28;20045;-35
2020/12/08 18:27:19;;;;;;;38.15;21.95;;;1.60;99.90;;;;;;12450807;28;20092;-35
2020/12/08 18:33:21;;;;;;;43.05;24.23;;;1.60;99.90;;;;;;12431630;28;20076;-35
2020/12/08 18:39:22;;;;;;;42.67;25.30;;;1.60;99.90;;;;;;12434182;28;20437;-35
2020/12/08 18:45:25;;;;;;;60.83;31.95;;;1.50;99.90;;;;;;12437302;28;20061;-35
2020/12/08 18:51:26;;;;;;;44.80;25.48;;;1.40;99.90;;;;;;12463640;28;20068;-35
2020/12/08 18:57:27;;;;;;;51.85;27.92;;;1.40;99.90;;;;;;12451421;28;20482;-35
2020/12/08 19:03:29;;;;;;;57.50;31.35;;;1.40;99.90;;;;;;12452915;28;20050;-35
2020/12/08 19:09:30;;;;;;;59.47;30.00;;;1.60;99.90;;;;;;12444274;28;20049;-35
2020/12/08 19:15:32;;;;;;;54.25;28.55;;;1.50;99.90;;;;;;12446634;28;20457;-34
2020/12/08 19:21:34;;;;;;;56.13;28.10;;;1.50;99.90;;;;;;12455514;28;20091;-34
2020/12/08 19:27:35;;;;;;;54.88;30.10;;;1.30;99.90;;;;;;12448299;28;20100;-34
2020/12/08 19:33:37;;;;;;;66.47;34.55;;;1.30;99.90;;;;;;12436652;28;20082;-34
2020/12/08 19:39:38;;;;;;;53.95;27.42;;;1.10;99.90;;;;;;12453065;28;20462;-34
2020/12/08 19:45:41;;;;;;;47.15;26.52;;;1.10;99.90;;;;;;12454153;28;21850;-34
2020/12/08 19:51:44;;;;;;;50.88;28.55;;;1.00;99.90;;;;;;12452288;28;20084;-34
2020/12/08 19:57:45;;;;;;;57.47;32.05;;;1.00;99.90;;;;;;12438267;28;20052;-34
2020/12/08 20:03:47;;;;;;;50.88;27.70;;;1.00;99.90;;;;;;12454299;28;20053;-34
2020/12/08 20:09:50;;;;;;;50.30;27.77;;;0.90;99.90;;;;;;12444782;28;20069;-34
2020/12/08 20:15:52;;;;;;;55.08;29.55;;;0.90;99.90;;;;;;12448960;28;20156;-34
2020/12/08 20:21:53;;;;;;;48.78;26.48;;;1.10;99.90;;;;;;12453628;28;20393;-35
2020/12/08 20:27:55;;;;;;;51.65;27.77;;;1.10;99.90;;;;;;12444406;28;20060;-35
2020/12/08 20:33:56;;;;;;;43.92;26.30;;;1.20;99.90;;;;;;12429201;28;20191;-35
2020/12/08 20:39:58;;;;;;;61.75;32.50;;;1.10;99.90;;;;;;12445115;28;20069;-35
2020/12/08 20:46:00;;;;;;;85.20;41.47;;;1.30;99.90;;;;;;12459326;28;20053;-35
2020/12/08 20:52:01;;;;;;;66.03;34.20;;;1.30;99.90;;;;;;12453313;28;20119;-35
2020/12/08 20:58:06;;;;;;;59.78;32.53;;;1.30;99.90;;;;;;12455853;28;20073;-35
2020/12/08 21:04:08;;;;;;;64.03;32.25;;;1.20;99.90;;;;;;12422676;28;20137;-35
2020/12/08 21:10:09;;;;;;;54.38;31.10;;;1.30;99.90;;;;;;12436557;28;20431;-35
2020/12/08 21:16:10;;;;;;;56.92;28.80;;;1.20;99.90;;;;;;12425880;28;20085;-35
2020/12/08 21:22:14;;;;;;;57.28;29.42;;;1.00;99.90;;;;;;12448095;28;20386;-35
2020/12/08 21:28:16;;;;;;;60.00;30.88;;;1.00;99.90;;;;;;12426337;28;20045;-35
2020/12/08 21:34:17;;;;;;;57.67;30.52;;;1.00;99.90;;;;;;12423683;28;20069;-35
2020/12/08 21:40:19;;;;;;;58.15;29.38;;;0.80;99.90;;;;;;12423330;28;20053;-35
2020/12/08 21:46:20;;;;;;;68.03;33.30;;;0.80;99.90;;;;;;12448064;28;20477;-35
2020/12/08 21:52:22;;;;;;;56.20;30.25;;;0.90;99.90;;;;;;12448196;28;20054;-35
2020/12/08 21:58:23;;;;;;;64.50;31.77;;;0.60;99.90;;;;;;12466573;28;20722;-35
2020/12/08 22:04:25;;;;;;;65.47;31.98;;;0.60;99.90;;;;;;12453160;28;20397;-35
2020/12/08 22:10:27;;;;;;;73.88;35.10;;;0.60;99.90;;;;;;12441153;28;20342;-35
2020/12/08 22:16:28;;;;;;;70.75;34.45;;;0.70;99.90;;;;;;12442280;28;20060;-35
2020/12/08 22:22:30;;;;;;;64.80;31.70;;;0.70;99.90;;;;;;12451871;28;20045;-35
2020/12/08 22:28:31;;;;;;;54.28;30.08;;;0.80;99.90;;;;;;12461849;28;20052;-35
2020/12/08 22:34:32;;;;;;;54.05;28.80;;;0.90;99.90;;;;;;12442643;28;20472;-34
2020/12/08 22:40:34;;;;;;;57.25;29.52;;;0.90;99.90;;;;;;12465916;28;20075;-34
2020/12/08 22:46:35;;;;;;;52.33;29.42;;;0.70;99.90;;;;;;12461199;28;20049;-34
2020/12/08 22:52:38;;;;;;;67.82;32.70;;;0.70;99.90;;;;;;12460993;28;20054;-34
2020/12/08 22:58:40;;;;;;;61.83;31.55;;;0.80;99.90;;;;;;12448997;28;20088;-35
2020/12/08 23:04:41;;;;;;;49.60;26.95;;;1.00;99.90;;;;;;12459064;28;20057;-34
2020/12/08 23:10:42;;;;;;;56.63;30.23;;;0.70;99.90;;;;;;12457739;28;20046;-35
2020/12/08 23:16:44;;;;;;;50.22;27.55;;;0.60;99.90;;;;;;12449194;28;20042;-35
2020/12/08 23:22:47;;;;;;;46.53;25.92;;;0.70;99.90;;;;;;12440228;28;20068;-34
2020/12/08 23:28:49;;;;;;;51.85;27.10;;;0.60;99.90;;;;;;12452997;28;20084;-34
2020/12/08 23:34:51;;;;;;;57.60;29.38;;;0.40;99.90;;;;;;12444859;28;20053;-34
2020/12/08 23:40:53;;;;;;;51.50;27.13;;;0.40;99.90;;;;;;12440464;28;20046;-34
2020/12/08 23:46:56;;;;;;;52.50;27.58;;;0.20;99.90;;;;;;12454704;28;20053;-34
2020/12/08 23:52:57;;;;;;;50.17;26.55;;;0.10;99.90;;;;;;12452465;28;20115;-34
2020/12/08 23:58:59;;;;;;;54.17;27.13;;;0.30;99.90;;;;;;12446886;28;20077;-34
